createdAt,value
2019-03-22T00:00:02.365Z,1048.16
2019-03-22T00:01:02.351Z,1048.18
2019-03-22T00:02:02.340Z,1048.18
2019-03-22T00:03:02.325Z,1048.17
2019-03-22T00:04:02.316Z,1048.13
2019-03-22T00:05:02.299Z,1048.1
2019-03-22T00:06:02.286Z,1048.11
2019-03-22T00:07:02.268Z,1048.13
2019-03-22T00:08:02.259Z,1048.18
2019-03-22T00:09:02.241Z,1048.17
2019-03-22T00:10:02.226Z,1048.18
2019-03-22T00:11:02.214Z,1048.16
2019-03-22T00:12:04.247Z,1048.12
2019-03-22T00:13:02.187Z,1048.14
2019-03-22T00:14:02.178Z,1048.16
2019-03-22T00:15:02.166Z,1048.14
2019-03-22T00:16:02.152Z,1048.15
2019-03-22T00:17:02.132Z,1048.11
2019-03-22T00:18:02.125Z,1048.1
2019-03-22T00:19:02.107Z,1048.09
2019-03-22T00:20:02.097Z,1048.07
2019-03-22T00:21:02.084Z,1048.07
2019-03-22T00:22:02.072Z,1048.1
2019-03-22T00:23:02.053Z,1048.11
2019-03-22T00:24:02.039Z,1048.14
2019-03-22T00:25:02.034Z,1048.09
2019-03-22T00:26:02.017Z,1048.1
2019-03-22T00:27:02.005Z,1048.08
2019-03-22T00:28:01.985Z,1048.13
2019-03-22T00:29:01.977Z,1048.13
2019-03-22T00:30:01.957Z,1048.13
2019-03-22T00:31:01.949Z,1048.15
2019-03-22T00:32:01.932Z,1048.15
2019-03-22T00:33:01.924Z,1048.19
2019-03-22T00:34:01.910Z,1048.2
2019-03-22T00:35:01.891Z,1048.17
2019-03-22T00:36:01.882Z,1048.16
2019-03-22T00:37:01.871Z,1048.11
2019-03-22T00:38:01.855Z,1048.1
2019-03-22T00:39:01.838Z,1048.14
2019-03-22T00:40:01.828Z,1048.13
2019-03-22T00:41:01.814Z,1048.12
2019-03-22T00:42:01.800Z,1048.12
2019-03-22T00:43:01.787Z,1048.14
2019-03-22T00:44:01.774Z,1048.14
2019-03-22T00:45:01.763Z,1048.15
2019-03-22T00:46:01.742Z,1048.16
2019-03-22T00:47:01.732Z,1048.16
2019-03-22T00:48:01.715Z,1048.14
2019-03-22T00:49:01.706Z,1048.16
2019-03-22T00:50:01.687Z,1048.13
2019-03-22T00:51:01.678Z,1048.15
2019-03-22T00:52:01.661Z,1048.13
2019-03-22T00:53:01.647Z,1048.14
2019-03-22T00:54:01.633Z,1048.16
2019-03-22T00:55:01.633Z,1048.09
2019-03-22T00:56:01.614Z,1048.08
2019-03-22T00:57:01.595Z,1048.01
2019-03-22T00:58:01.579Z,1047.96
2019-03-22T00:59:01.570Z,1047.89
2019-03-22T01:00:01.554Z,1047.88
2019-03-22T01:01:01.554Z,1047.81
2019-03-22T01:02:01.535Z,1047.77
2019-03-22T01:03:01.517Z,1047.75
2019-03-22T01:04:01.499Z,1047.65
2019-03-22T01:05:01.491Z,1047.58
2019-03-22T01:06:01.472Z,1047.54
2019-03-22T01:07:01.463Z,1047.5
2019-03-22T01:08:01.443Z,1047.41
2019-03-22T01:09:01.434Z,1047.32
2019-03-22T01:10:01.418Z,1047.21
2019-03-22T01:11:01.408Z,1047.18
2019-03-22T01:12:01.395Z,1047.17
2019-03-22T01:13:01.378Z,1047.13
2019-03-22T01:14:01.364Z,1047.14
2019-03-22T01:15:01.351Z,1047.07
2019-03-22T01:16:01.343Z,1047.08
2019-03-22T01:17:01.326Z,1047.05
2019-03-22T01:18:01.318Z,1047.03
2019-03-22T01:19:01.299Z,1047.02
2019-03-22T01:20:01.291Z,1046.96
2019-03-22T01:21:01.274Z,1046.9
2019-03-22T01:22:01.264Z,1046.87
2019-03-22T01:23:01.247Z,1046.83
2019-03-22T01:24:01.239Z,1046.83
2019-03-22T01:25:01.222Z,1046.77
2019-03-22T01:26:01.209Z,1046.76
2019-03-22T01:27:01.200Z,1046.7
2019-03-22T01:28:01.188Z,1046.64
2019-03-22T01:29:01.172Z,1046.57
2019-03-22T01:30:01.159Z,1046.59
2019-03-22T01:31:01.146Z,1046.58
2019-03-22T01:32:01.137Z,1046.6
2019-03-22T01:33:01.120Z,1046.59
2019-03-22T01:34:01.114Z,1046.6
2019-03-22T01:35:01.098Z,1046.6
2019-03-22T01:36:01.087Z,1046.62
2019-03-22T01:37:01.077Z,1046.58
2019-03-22T01:38:01.059Z,1046.57
2019-03-22T01:39:01.049Z,1046.51
2019-03-22T01:40:01.033Z,1046.47
2019-03-22T01:41:01.020Z,1046.43
2019-03-22T01:42:01.009Z,1046.38
2019-03-22T01:43:01.001Z,1046.38
2019-03-22T01:44:00.987Z,1046.32
2019-03-22T01:45:00.971Z,1046.29
2019-03-22T01:46:00.959Z,1046.29
2019-03-22T01:47:00.947Z,1046.24
2019-03-22T01:48:00.939Z,1046.23
2019-03-22T01:49:00.931Z,1046.17
2019-03-22T01:50:00.911Z,1046.15
2019-03-22T01:51:00.903Z,1046.1
2019-03-22T01:52:00.887Z,1046.07
2019-03-22T01:53:00.878Z,1046.09
2019-03-22T01:54:00.862Z,1046.1
2019-03-22T01:55:00.854Z,1046.07
2019-03-22T01:56:00.838Z,1046.06
2019-03-22T01:57:00.826Z,1046.03
2019-03-22T01:58:00.814Z,1046.05
2019-03-22T01:59:00.805Z,1046.04
2019-03-22T02:00:00.794Z,1046.03
2019-03-22T02:01:00.778Z,1045.95
2019-03-22T02:02:00.767Z,1045.97
2019-03-22T02:03:00.755Z,1045.94
2019-03-22T02:04:00.746Z,1045.95
2019-03-22T02:05:00.731Z,1045.93
2019-03-22T02:06:00.723Z,1045.97
2019-03-22T02:07:00.707Z,1045.92
2019-03-22T02:08:00.699Z,1045.99
2019-03-22T02:09:00.684Z,1046.03
2019-03-22T02:10:00.675Z,1046.05
2019-03-22T02:11:00.659Z,1045.98
2019-03-22T02:12:00.652Z,1045.97
2019-03-22T02:13:00.644Z,1045.93
2019-03-22T02:14:00.630Z,1045.89
2019-03-22T02:15:00.612Z,1045.87
2019-03-22T02:16:00.605Z,1045.82
2019-03-22T02:17:00.589Z,1045.79
2019-03-22T02:18:00.577Z,1045.74
2019-03-22T02:19:00.566Z,1045.7
2019-03-22T02:20:00.559Z,1045.66
2019-03-22T02:21:00.542Z,1045.63
2019-03-22T02:22:00.535Z,1045.64
2019-03-22T02:23:00.521Z,1045.61
2019-03-22T02:24:00.512Z,1045.65
2019-03-22T02:25:00.495Z,1045.65
2019-03-22T02:26:00.492Z,1045.64
2019-03-22T02:27:00.473Z,1045.67
2019-03-22T02:28:04.258Z,1045.66
2019-03-22T02:29:00.453Z,1045.67
2019-03-22T02:30:00.541Z,1045.66
2019-03-22T02:31:00.427Z,1045.64
2019-03-22T02:32:00.416Z,1045.62
2019-03-22T02:33:00.419Z,1045.63
2019-03-22T02:34:00.397Z,1045.62
2019-03-22T02:35:00.431Z,1045.59
2019-03-22T02:36:00.369Z,1045.62
2019-03-22T02:37:00.364Z,1045.63
2019-03-22T02:38:00.348Z,1045.68
2019-03-22T02:39:00.339Z,1045.68
2019-03-22T02:40:00.585Z,1045.63
2019-03-22T02:41:00.318Z,1045.64
2019-03-22T02:42:00.306Z,1045.66
2019-03-22T02:43:00.291Z,1045.65
2019-03-22T02:44:00.331Z,1045.63
2019-03-22T02:45:00.510Z,1045.61
2019-03-22T02:46:00.260Z,1045.63
2019-03-22T02:47:00.245Z,1045.65
2019-03-22T02:48:00.246Z,1045.66
2019-03-22T02:49:00.227Z,1045.65
2019-03-22T02:50:00.465Z,1045.64
2019-03-22T02:51:00.206Z,1045.66
2019-03-22T02:52:00.190Z,1045.64
2019-03-22T02:53:00.182Z,1045.63
2019-03-22T02:54:00.170Z,1045.59
2019-03-22T02:55:00.244Z,1045.55
2019-03-22T02:56:00.236Z,1045.56
2019-03-22T02:57:00.137Z,1045.56
2019-03-22T02:58:00.127Z,1045.61
2019-03-22T02:59:00.116Z,1045.57
2019-03-22T03:00:00.135Z,1045.55
2019-03-22T03:01:00.087Z,1045.57
2019-03-22T03:02:00.078Z,1045.54
2019-03-22T03:03:00.073Z,1045.57
2019-03-22T03:04:00.059Z,1045.58
2019-03-22T03:05:00.047Z,1045.56
2019-03-22T03:06:00.031Z,1045.57
2019-03-22T03:07:00.027Z,1045.53
2019-03-22T03:08:00.020Z,1045.53
2019-03-22T03:09:00.004Z,1045.5
2019-03-22T03:09:59.988Z,1045.49
2019-03-22T03:10:59.981Z,1045.45
2019-03-22T03:11:59.967Z,1045.48
2019-03-22T03:12:59.966Z,1045.46
2019-03-22T03:13:59.944Z,1045.43
2019-03-22T03:14:59.937Z,1045.46
2019-03-22T03:15:59.924Z,1045.46
2019-03-22T03:16:59.910Z,1045.51
2019-03-22T03:17:59.901Z,1045.54
2019-03-22T03:18:59.892Z,1045.57
2019-03-22T03:19:59.881Z,1045.59
2019-03-22T03:20:59.883Z,1045.56
2019-03-22T03:21:59.857Z,1045.57
2019-03-22T03:22:59.845Z,1045.58
2019-03-22T03:23:59.837Z,1045.55
2019-03-22T03:24:59.822Z,1045.53
2019-03-22T03:25:59.816Z,1045.49
2019-03-22T03:26:59.801Z,1045.53
2019-03-22T03:27:59.795Z,1045.59
2019-03-22T03:28:59.780Z,1045.64
2019-03-22T03:29:59.776Z,1045.67
2019-03-22T03:30:59.762Z,1045.77
2019-03-22T03:31:59.752Z,1045.76
2019-03-22T03:32:59.746Z,1045.81
2019-03-22T03:33:59.726Z,1045.81
2019-03-22T03:34:59.719Z,1045.78
2019-03-22T03:35:59.707Z,1045.73
2019-03-22T03:36:59.694Z,1045.74
2019-03-22T03:37:59.681Z,1045.72
2019-03-22T03:38:59.671Z,1045.74
2019-03-22T03:39:59.667Z,1045.74
2019-03-22T03:40:59.648Z,1045.76
2019-03-22T03:41:59.642Z,1045.8
2019-03-22T03:42:59.628Z,1045.81
2019-03-22T03:43:59.625Z,1045.78
2019-03-22T03:44:59.609Z,1045.76
2019-03-22T03:45:59.599Z,1045.79
2019-03-22T03:46:59.583Z,1045.79
2019-03-22T03:47:59.578Z,1045.75
2019-03-22T03:48:59.567Z,1045.77
2019-03-22T03:49:59.558Z,1045.73
2019-03-22T03:50:59.614Z,1045.73
2019-03-22T03:51:59.530Z,1045.75
2019-03-22T03:52:59.532Z,1045.73
2019-03-22T03:53:59.513Z,1045.7
2019-03-22T03:54:59.508Z,1045.7
2019-03-22T03:55:59.487Z,1045.74
2019-03-22T03:56:59.481Z,1045.71
2019-03-22T03:57:59.470Z,1045.7
2019-03-22T03:58:59.458Z,1045.66
2019-03-22T03:59:59.448Z,1045.65
2019-03-22T04:00:59.434Z,1045.6
2019-03-22T04:01:59.427Z,1045.61
2019-03-22T04:02:59.415Z,1045.59
2019-03-22T04:03:59.407Z,1045.59
2019-03-22T04:04:59.399Z,1045.61
2019-03-22T04:05:59.386Z,1045.61
2019-03-22T04:06:59.374Z,1045.62
2019-03-22T04:07:59.359Z,1045.64
2019-03-22T04:08:59.353Z,1045.67
2019-03-22T04:09:59.366Z,1045.64
2019-03-22T04:10:59.332Z,1045.64
2019-03-22T04:11:59.328Z,1045.67
2019-03-22T04:12:59.315Z,1045.67
2019-03-22T04:13:59.297Z,1045.64
2019-03-22T04:14:59.290Z,1045.67
2019-03-22T04:15:59.279Z,1045.67
2019-03-22T04:16:59.269Z,1045.72
2019-03-22T04:17:59.265Z,1045.72
2019-03-22T04:18:59.256Z,1045.73
2019-03-22T04:19:59.239Z,1045.71
2019-03-22T04:20:59.223Z,1045.7
2019-03-22T04:21:59.211Z,1045.68
2019-03-22T04:22:59.207Z,1045.67
2019-03-22T04:23:59.190Z,1045.68
2019-03-22T04:24:59.185Z,1045.72
2019-03-22T04:25:59.174Z,1045.75
2019-03-22T04:26:59.164Z,1045.75
2019-03-22T04:27:59.151Z,1045.75
2019-03-22T04:29:07.026Z,1045.72
2019-03-22T04:29:59.129Z,1045.7
2019-03-22T04:30:59.123Z,1045.73
2019-03-22T04:31:59.106Z,1045.74
2019-03-22T04:32:59.100Z,1045.74
2019-03-22T04:33:59.086Z,1045.77
2019-03-22T04:34:59.080Z,1045.75
2019-03-22T04:35:59.065Z,1045.76
2019-03-22T04:36:59.054Z,1045.74
2019-03-22T04:37:59.046Z,1045.74
2019-03-22T04:38:59.038Z,1045.83
2019-03-22T04:39:59.026Z,1045.83
2019-03-22T04:40:59.012Z,1045.84
2019-03-22T04:41:59.002Z,1045.82
2019-03-22T04:42:58.990Z,1045.78
2019-03-22T04:43:59.008Z,1045.78
2019-03-22T04:44:58.970Z,1045.77
2019-03-22T04:45:58.963Z,1045.81
2019-03-22T04:46:58.949Z,1045.79
2019-03-22T04:47:58.944Z,1045.84
2019-03-22T04:48:58.929Z,1045.9
2019-03-22T04:49:58.919Z,1045.92
2019-03-22T04:50:58.911Z,1045.9
2019-03-22T04:51:58.895Z,1045.9
2019-03-22T04:52:58.914Z,1045.92
2019-03-22T04:53:58.878Z,1045.9
2019-03-22T04:54:58.870Z,1045.88
2019-03-22T04:55:58.904Z,1045.89
2019-03-22T04:56:58.845Z,1045.88
2019-03-22T04:57:58.834Z,1045.84
2019-03-22T04:58:58.823Z,1045.84
2019-03-22T04:59:58.817Z,1045.81
2019-03-22T05:00:58.806Z,1045.81
2019-03-22T05:01:58.792Z,1045.78
2019-03-22T05:02:58.789Z,1045.81
2019-03-22T05:03:59.259Z,1045.82
2019-03-22T05:04:58.769Z,1045.78
2019-03-22T05:05:58.750Z,1045.81
2019-03-22T05:06:58.744Z,1045.82
2019-03-22T05:07:58.735Z,1045.85
2019-03-22T05:08:58.733Z,1045.82
2019-03-22T05:09:58.709Z,1045.82
2019-03-22T05:10:58.706Z,1045.82
2019-03-22T05:11:58.693Z,1045.83
2019-03-22T05:12:58.678Z,1045.8
2019-03-22T05:13:58.667Z,1045.75
2019-03-22T05:14:58.669Z,1045.77
2019-03-22T05:15:58.647Z,1045.75
2019-03-22T05:16:58.641Z,1045.81
2019-03-22T05:17:58.627Z,1045.83
2019-03-22T05:18:58.621Z,1045.88
2019-03-22T05:19:58.606Z,1045.91
2019-03-22T05:20:58.600Z,1045.89
2019-03-22T05:21:58.588Z,1045.92
2019-03-22T05:22:58.580Z,1045.94
2019-03-22T05:23:58.565Z,1045.91
2019-03-22T05:24:58.555Z,1045.89
2019-03-22T05:25:58.545Z,1045.91
2019-03-22T05:26:58.538Z,1045.9
2019-03-22T05:27:58.530Z,1045.91
2019-03-22T05:28:58.513Z,1045.89
2019-03-22T05:29:58.505Z,1045.87
2019-03-22T05:30:58.493Z,1045.74
2019-03-22T05:31:58.488Z,1045.74
2019-03-22T05:32:58.473Z,1045.7
2019-03-22T05:33:58.467Z,1045.69
2019-03-22T05:34:58.454Z,1045.71
2019-03-22T05:35:58.446Z,1045.69
2019-03-22T05:36:58.470Z,1045.72
2019-03-22T05:37:58.426Z,1045.73
2019-03-22T05:38:58.412Z,1045.76
2019-03-22T05:39:58.407Z,1045.76
2019-03-22T05:40:58.391Z,1045.73
2019-03-22T05:41:58.383Z,1045.79
2019-03-22T05:42:58.376Z,1045.79
2019-03-22T05:43:58.366Z,1045.74
2019-03-22T05:44:58.352Z,1045.73
2019-03-22T05:45:58.342Z,1045.67
2019-03-22T05:46:58.333Z,1045.62
2019-03-22T05:47:58.327Z,1045.61
2019-03-22T05:48:58.312Z,1045.63
2019-03-22T05:49:58.307Z,1045.61
2019-03-22T05:50:58.293Z,1045.64
2019-03-22T05:51:58.290Z,1045.64
2019-03-22T05:52:58.272Z,1045.69
2019-03-22T05:53:58.267Z,1045.68
2019-03-22T05:54:58.253Z,1045.71
2019-03-22T05:55:58.247Z,1045.77
2019-03-22T05:56:58.237Z,1045.78
2019-03-22T05:57:58.229Z,1045.82
2019-03-22T05:58:58.214Z,1045.73
2019-03-22T05:59:58.203Z,1045.74
2019-03-22T06:00:58.198Z,1045.73
2019-03-22T06:01:58.188Z,1045.72
2019-03-22T06:02:58.178Z,1045.71
2019-03-22T06:03:58.163Z,1045.7
2019-03-22T06:04:58.158Z,1045.69
2019-03-22T06:05:58.149Z,1045.66
2019-03-22T06:06:58.134Z,1045.6
2019-03-22T06:07:58.128Z,1045.57
2019-03-22T06:08:58.118Z,1045.5
2019-03-22T06:09:58.110Z,1045.52
2019-03-22T06:10:58.095Z,1045.5
2019-03-22T06:11:58.090Z,1045.48
2019-03-22T06:12:58.088Z,1045.48
2019-03-22T06:13:58.070Z,1045.46
2019-03-22T06:14:58.056Z,1045.49
2019-03-22T06:15:58.046Z,1045.49
2019-03-22T06:16:58.041Z,1045.55
2019-03-22T06:17:58.030Z,1045.59
2019-03-22T06:18:58.021Z,1045.64
2019-03-22T06:19:58.008Z,1045.74
2019-03-22T06:20:58.006Z,1045.79
2019-03-22T06:21:57.987Z,1045.85
2019-03-22T06:22:57.986Z,1045.84
2019-03-22T06:23:57.969Z,1045.84
2019-03-22T06:24:57.964Z,1045.87
2019-03-22T06:25:57.949Z,1045.9
2019-03-22T06:26:57.944Z,1045.91
2019-03-22T06:27:57.936Z,1045.92
2019-03-22T06:28:57.961Z,1045.91
2019-03-22T06:29:57.911Z,1045.94
2019-03-22T06:30:57.910Z,1045.89
2019-03-22T06:31:57.891Z,1045.96
2019-03-22T06:32:57.887Z,1046.01
2019-03-22T06:33:57.876Z,1046.02
2019-03-22T06:34:57.867Z,1046.06
2019-03-22T06:35:57.854Z,1046.11
2019-03-22T06:36:57.848Z,1046.07
2019-03-22T06:37:57.834Z,1046.08
2019-03-22T06:38:57.829Z,1046.06
2019-03-22T06:39:57.814Z,1046.05
2019-03-22T06:40:57.808Z,1046.09
2019-03-22T06:41:57.795Z,1046.04
2019-03-22T06:42:57.796Z,1046.08
2019-03-22T06:43:57.776Z,1046.08
2019-03-22T06:44:57.770Z,1045.99
2019-03-22T06:45:57.761Z,1046.01
2019-03-22T06:46:57.747Z,1045.97
2019-03-22T06:47:57.737Z,1045.94
2019-03-22T06:48:57.736Z,1045.88
2019-03-22T06:49:57.723Z,1045.89
2019-03-22T06:50:57.712Z,1045.84
2019-03-22T06:51:57.699Z,1045.87
2019-03-22T06:52:57.694Z,1045.81
2019-03-22T06:53:57.681Z,1045.84
2019-03-22T06:54:57.677Z,1045.87
2019-03-22T06:55:57.661Z,1045.89
2019-03-22T06:56:57.656Z,1045.9
2019-03-22T06:57:57.647Z,1045.92
2019-03-22T06:58:57.632Z,1045.89
2019-03-22T07:00:06.169Z,1045.9
2019-03-22T07:00:57.619Z,1045.94
2019-03-22T07:01:57.609Z,1045.95
2019-03-22T07:02:57.595Z,1045.97
2019-03-22T07:03:57.587Z,1045.97
2019-03-22T07:04:57.582Z,1045.99
2019-03-22T07:05:57.571Z,1045.95
2019-03-22T07:06:57.562Z,1045.95
2019-03-22T07:07:57.549Z,1045.94
2019-03-22T07:08:57.544Z,1045.96
2019-03-22T07:09:57.531Z,1045.94
2019-03-22T07:10:57.525Z,1045.91
2019-03-22T07:11:57.515Z,1045.9
2019-03-22T07:12:57.506Z,1045.92
2019-03-22T07:13:57.494Z,1045.93
2019-03-22T07:14:57.488Z,1045.98
2019-03-22T07:15:57.474Z,1046.04
2019-03-22T07:16:58.891Z,1046.08
2019-03-22T07:17:57.455Z,1046.08
2019-03-22T07:18:57.451Z,1046.1
2019-03-22T07:19:57.443Z,1046.05
2019-03-22T07:20:57.430Z,1046.05
2019-03-22T07:21:57.420Z,1046.04
2019-03-22T07:22:57.415Z,1046
2019-03-22T07:23:57.401Z,1046.02
2019-03-22T07:24:57.396Z,1046.01
2019-03-22T07:25:57.383Z,1046.03
2019-03-22T07:26:57.381Z,1045.98
2019-03-22T07:27:57.363Z,1045.93
2019-03-22T07:28:57.362Z,1045.9
2019-03-22T07:29:57.347Z,1045.8
2019-03-22T07:30:57.342Z,1045.72
2019-03-22T07:31:57.332Z,1045.7
2019-03-22T07:32:57.318Z,1045.67
2019-03-22T07:33:57.309Z,1045.64
2019-03-22T07:34:57.304Z,1045.61
2019-03-22T07:35:57.295Z,1045.53
2019-03-22T07:36:57.282Z,1045.54
2019-03-22T07:37:57.273Z,1045.53
2019-03-22T07:38:57.263Z,1045.52
2019-03-22T07:39:57.258Z,1045.51
2019-03-22T07:40:57.246Z,1045.46
2019-03-22T07:41:57.241Z,1045.47
2019-03-22T07:42:57.227Z,1045.48
2019-03-22T07:43:57.223Z,1045.46
2019-03-22T07:44:57.211Z,1045.44
2019-03-22T07:45:57.205Z,1045.44
2019-03-22T07:46:57.192Z,1045.35
2019-03-22T07:47:57.189Z,1045.29
2019-03-22T07:48:57.175Z,1045.26
2019-03-22T07:49:57.166Z,1045.25
2019-03-22T07:50:57.162Z,1045.22
2019-03-22T07:51:57.153Z,1045.21
2019-03-22T07:52:57.142Z,1045.25
2019-03-22T07:53:57.131Z,1045.22
2019-03-22T07:54:57.124Z,1045.28
2019-03-22T07:55:57.122Z,1045.31
2019-03-22T07:56:57.106Z,1045.29
2019-03-22T07:57:57.101Z,1045.24
2019-03-22T07:58:57.088Z,1045.24
2019-03-22T07:59:57.084Z,1045.24
2019-03-22T08:00:57.073Z,1045.18
2019-03-22T08:01:57.067Z,1045.2
2019-03-22T08:02:57.065Z,1045.13
2019-03-22T08:03:57.050Z,1045.2
2019-03-22T08:04:57.041Z,1045.17
2019-03-22T08:05:57.035Z,1045.13
2019-03-22T08:06:57.022Z,1045.11
2019-03-22T08:07:57.013Z,1045.13
2019-03-22T08:08:57.008Z,1045.08
2019-03-22T08:09:57.093Z,1045.12
2019-03-22T08:10:57.028Z,1045.07
2019-03-22T08:11:56.979Z,1045.06
2019-03-22T08:12:56.977Z,1045.02
2019-03-22T08:13:56.978Z,1045.02
2019-03-22T08:14:56.956Z,1044.98
2019-03-22T08:15:57.651Z,1044.98
2019-03-22T08:16:56.938Z,1044.97
2019-03-22T08:17:57.314Z,1044.97
2019-03-22T08:18:56.922Z,1044.96
2019-03-22T08:19:57.316Z,1044.94
2019-03-22T08:20:56.912Z,1044.99
2019-03-22T08:21:56.914Z,1044.99
2019-03-22T08:22:56.928Z,1044.98
2019-03-22T08:23:56.893Z,1045
2019-03-22T08:24:56.879Z,1045.02
2019-03-22T08:25:56.870Z,1045.02
2019-03-22T08:26:56.858Z,1045
2019-03-22T08:27:56.854Z,1045.02
2019-03-22T08:28:56.843Z,1045.01
2019-03-22T08:29:56.850Z,1044.96
2019-03-22T08:30:56.829Z,1045
2019-03-22T08:31:56.823Z,1044.99
2019-03-22T08:32:56.857Z,1044.98
2019-03-22T08:33:56.806Z,1045
2019-03-22T08:34:56.794Z,1044.96
2019-03-22T08:35:56.817Z,1044.93
2019-03-22T08:36:56.790Z,1044.88
2019-03-22T08:37:56.780Z,1044.89
2019-03-22T08:38:56.764Z,1044.91
2019-03-22T08:39:56.759Z,1044.94
2019-03-22T08:40:56.785Z,1044.98
2019-03-22T08:41:56.739Z,1045.05
2019-03-22T08:42:56.731Z,1045.12
2019-03-22T08:43:56.753Z,1045.12
2019-03-22T08:44:56.715Z,1045.15
2019-03-22T08:45:56.712Z,1045.08
2019-03-22T08:46:56.705Z,1045.05
2019-03-22T08:47:56.717Z,1045.05
2019-03-22T08:48:56.767Z,1045.07
2019-03-22T08:49:56.680Z,1045.08
2019-03-22T08:50:56.677Z,1045.08
2019-03-22T08:51:56.704Z,1045.1
2019-03-22T08:52:56.656Z,1045.18
2019-03-22T08:53:56.650Z,1045.22
2019-03-22T08:54:56.637Z,1045.19
2019-03-22T08:55:56.643Z,1045.22
2019-03-22T08:56:56.625Z,1045.21
2019-03-22T08:57:56.645Z,1045.15
2019-03-22T08:58:56.609Z,1045.14
2019-03-22T08:59:56.622Z,1045.1
2019-03-22T09:00:57.941Z,1045.04
2019-03-22T09:01:56.582Z,1045.03
2019-03-22T09:02:56.577Z,1045.01
2019-03-22T09:03:56.566Z,1045.02
2019-03-22T09:04:56.595Z,1045.09
2019-03-22T09:05:56.553Z,1045.04
2019-03-22T09:06:58.890Z,1045.06
2019-03-22T09:07:56.643Z,1045.03
2019-03-22T09:08:56.531Z,1045.03
2019-03-22T09:09:56.529Z,1045.04
2019-03-22T09:10:56.556Z,1045.06
2019-03-22T09:11:56.538Z,1045.05
2019-03-22T09:12:56.518Z,1045.06
2019-03-22T09:13:56.530Z,1045.07
2019-03-22T09:14:56.509Z,1045.06
2019-03-22T09:15:56.471Z,1045.04
2019-03-22T09:16:56.467Z,1044.98
2019-03-22T09:17:56.471Z,1044.97
2019-03-22T09:18:56.456Z,1044.96
2019-03-22T09:19:56.439Z,1044.98
2019-03-22T09:20:56.435Z,1044.98
2019-03-22T09:21:57.353Z,1044.93
2019-03-22T09:22:56.422Z,1044.91
2019-03-22T09:23:56.409Z,1044.85
2019-03-22T09:24:56.403Z,1044.84
2019-03-22T09:25:56.439Z,1044.8
2019-03-22T09:26:56.389Z,1044.77
2019-03-22T09:27:56.430Z,1044.77
2019-03-22T09:28:56.369Z,1044.76
2019-03-22T09:29:56.377Z,1044.71
2019-03-22T09:31:05.310Z,1044.66
2019-03-22T09:31:56.396Z,1044.57
2019-03-22T09:32:56.344Z,1044.49
2019-03-22T09:33:56.331Z,1044.46
2019-03-22T09:34:56.328Z,1044.43
2019-03-22T09:35:56.319Z,1044.4
2019-03-22T09:36:56.372Z,1044.44
2019-03-22T09:37:56.300Z,1044.47
2019-03-22T09:38:56.328Z,1044.53
2019-03-22T09:39:56.312Z,1044.58
2019-03-22T09:40:56.289Z,1044.59
2019-03-22T09:41:56.271Z,1044.59
2019-03-22T09:42:56.267Z,1044.55
2019-03-22T09:43:56.260Z,1044.53
2019-03-22T09:44:56.256Z,1044.48
2019-03-22T09:45:56.247Z,1044.4
2019-03-22T09:46:56.263Z,1044.39
2019-03-22T09:47:56.232Z,1044.38
2019-03-22T09:48:56.272Z,1044.35
2019-03-22T09:49:56.214Z,1044.39
2019-03-22T09:50:56.215Z,1044.39
2019-03-22T09:51:56.201Z,1044.41
2019-03-22T09:52:56.209Z,1044.39
2019-03-22T09:53:56.190Z,1044.41
2019-03-22T09:54:56.203Z,1044.39
2019-03-22T09:55:56.175Z,1044.33
2019-03-22T09:56:56.159Z,1044.26
2019-03-22T09:57:56.165Z,1044.26
2019-03-22T09:58:56.158Z,1044.29
2019-03-22T09:59:56.140Z,1044.3
2019-03-22T10:00:56.182Z,1044.29
2019-03-22T10:01:56.122Z,1044.3
2019-03-22T10:02:56.113Z,1044.29
2019-03-22T10:03:56.133Z,1044.25
2019-03-22T10:04:56.148Z,1044.29
2019-03-22T10:05:56.145Z,1044.27
2019-03-22T10:06:56.105Z,1044.27
2019-03-22T10:07:56.191Z,1044.25
2019-03-22T10:08:56.075Z,1044.2
2019-03-22T10:09:56.072Z,1044.14
2019-03-22T10:10:56.070Z,1044.17
2019-03-22T10:11:56.054Z,1044.13
2019-03-22T10:12:56.047Z,1044.15
2019-03-22T10:13:56.065Z,1044.19
2019-03-22T10:14:56.039Z,1044.23
2019-03-22T10:15:56.021Z,1044.18
2019-03-22T10:16:56.071Z,1044.16
2019-03-22T10:17:56.010Z,1044.16
2019-03-22T10:18:56.013Z,1044.19
2019-03-22T10:19:55.992Z,1044.16
2019-03-22T10:20:55.989Z,1044.16
2019-03-22T10:21:56.007Z,1044.22
2019-03-22T10:22:55.971Z,1044.17
2019-03-22T10:23:55.977Z,1044.15
2019-03-22T10:24:56.023Z,1044.14
2019-03-22T10:25:55.954Z,1044.13
2019-03-22T10:26:55.995Z,1044.11
2019-03-22T10:27:55.941Z,1044.05
2019-03-22T10:28:55.934Z,1043.97
2019-03-22T10:29:55.927Z,1044.04
2019-03-22T10:30:55.916Z,1044.1
2019-03-22T10:31:55.938Z,1044.16
2019-03-22T10:32:55.907Z,1044.27
2019-03-22T10:33:55.904Z,1044.29
2019-03-22T10:34:55.921Z,1044.34
2019-03-22T10:35:55.885Z,1044.37
2019-03-22T10:36:55.879Z,1044.45
2019-03-22T10:38:00.299Z,1044.48
2019-03-22T10:38:55.870Z,1044.48
2019-03-22T10:39:55.855Z,1044.47
2019-03-22T10:40:55.903Z,1044.45
2019-03-22T10:41:55.841Z,1044.42
2019-03-22T10:42:55.858Z,1044.37
2019-03-22T10:43:55.826Z,1044.39
2019-03-22T10:44:55.836Z,1044.37
2019-03-22T10:45:55.810Z,1044.35
2019-03-22T10:46:55.854Z,1044.32
2019-03-22T10:47:55.798Z,1044.27
2019-03-22T10:48:55.794Z,1044.2
2019-03-22T10:49:55.790Z,1044.19
2019-03-22T10:50:55.794Z,1044.15
2019-03-22T10:51:57.852Z,1044.13
2019-03-22T10:52:55.841Z,1044.07
2019-03-22T10:53:55.782Z,1044.04
2019-03-22T10:54:55.767Z,1043.99
2019-03-22T10:55:55.740Z,1043.98
2019-03-22T10:56:55.738Z,1043.92
2019-03-22T10:57:55.745Z,1043.93
2019-03-22T10:58:55.725Z,1043.9
2019-03-22T10:59:55.713Z,1043.83
2019-03-22T11:00:55.706Z,1043.8
2019-03-22T11:02:02.942Z,1043.77
2019-03-22T11:02:55.700Z,1043.78
2019-03-22T11:03:55.843Z,1043.73
2019-03-22T11:04:55.679Z,1043.68
2019-03-22T11:05:55.672Z,1043.64
2019-03-22T11:06:55.664Z,1043.62
2019-03-22T11:07:55.663Z,1043.67
2019-03-22T11:08:55.658Z,1043.7
2019-03-22T11:09:55.649Z,1043.72
2019-03-22T11:10:55.637Z,1043.66
2019-03-22T11:11:55.937Z,1043.65
2019-03-22T11:12:55.625Z,1043.59
2019-03-22T11:13:55.617Z,1043.59
2019-03-22T11:14:55.615Z,1043.55
2019-03-22T11:15:55.604Z,1043.52
2019-03-22T11:16:55.601Z,1043.45
2019-03-22T11:17:55.590Z,1043.4
2019-03-22T11:18:55.588Z,1043.38
2019-03-22T11:19:57.450Z,1043.41
2019-03-22T11:21:04.683Z,1043.39
2019-03-22T11:21:55.564Z,1043.36
2019-03-22T11:22:55.558Z,1043.35
2019-03-22T11:23:55.557Z,1043.31
2019-03-22T11:24:55.544Z,1043.35
2019-03-22T11:26:03.769Z,1043.37
2019-03-22T11:26:55.532Z,1043.38
2019-03-22T11:27:55.530Z,1043.34
2019-03-22T11:28:55.519Z,1043.34
2019-03-22T11:29:55.517Z,1043.28
2019-03-22T11:31:01.239Z,1043.26
2019-03-22T11:31:55.505Z,1043.2
2019-03-22T11:32:55.498Z,1043.18
2019-03-22T11:33:55.491Z,1043.11
2019-03-22T11:34:55.481Z,1043.06
2019-03-22T11:35:55.474Z,1042.99
2019-03-22T11:36:55.471Z,1042.94
2019-03-22T11:37:55.466Z,1042.9
2019-03-22T11:38:55.456Z,1042.86
2019-03-22T11:39:55.452Z,1042.82
2019-03-22T11:40:55.443Z,1042.77
2019-03-22T11:41:55.440Z,1042.76
2019-03-22T11:42:55.431Z,1042.69
2019-03-22T11:43:55.427Z,1042.64
2019-03-22T11:44:55.417Z,1042.57
2019-03-22T11:45:55.419Z,1042.43
2019-03-22T11:46:55.404Z,1042.34
2019-03-22T11:47:55.402Z,1042.3
2019-03-22T11:48:55.396Z,1042.27
2019-03-22T11:49:55.390Z,1042.27
2019-03-22T11:50:55.380Z,1042.25
2019-03-22T11:51:55.378Z,1042.23
2019-03-22T11:52:55.372Z,1042.23
2019-03-22T11:53:55.362Z,1042.22
2019-03-22T11:54:55.355Z,1042.24
2019-03-22T11:55:55.356Z,1042.27
2019-03-22T11:56:55.345Z,1042.29
2019-03-22T11:57:55.342Z,1042.3
2019-03-22T11:58:55.334Z,1042.32
2019-03-22T11:59:55.338Z,1042.32
2019-03-22T12:00:55.324Z,1042.29
2019-03-22T12:01:55.322Z,1042.31
2019-03-22T12:02:55.313Z,1042.32
2019-03-22T12:03:55.308Z,1042.29
2019-03-22T12:04:55.299Z,1042.28
2019-03-22T12:05:55.292Z,1042.21
2019-03-22T12:06:55.292Z,1042.21
2019-03-22T12:07:55.286Z,1042.17